Time;durP1;ratioP1;P1;durP2;ratioP2;P2;SDS_P1;SDS_P2;PMS_P1;PMS_P2;Temp;Humidity;BMP_temperature;BMP_pressure;BME280_temperature;BME280_humidity;BME280_pressure;Samples;Min_cycle;Max_cycle;Signal;HPM_P1;HPM_P2
2023/01/17 00:01:53;;;;;;;17.75;10.75;;;;;;;-0.94;69.10;99734.50;5071093;28;20040;-62
2023/01/17 00:09:52;;;;;;;19.08;10.52;;;;;;;-0.97;69.26;99725.84;5071295;28;20029;-56
2023/01/17 00:12:19;;;;;;;19.70;11.52;;;;;;;-0.98;69.35;99739.91;5071344;28;20445;-54
2023/01/17 00:14:45;;;;;;;22.50;11.15;;;;;;;-1.02;69.87;99745.28;5070682;28;20087;-59
2023/01/17 00:17:11;;;;;;;20.70;11.82;;;;;;;-1.03;69.90;99746.19;5071584;28;20117;-58
2023/01/17 01:34:02;;;;;;;19.63;11.52;;;;;;;-0.82;69.30;99748.16;5074257;28;20033;-57
2023/01/17 01:36:28;;;;;;;22.00;12.88;;;;;;;-0.85;69.76;99730.69;5073997;28;20480;-53
2023/01/17 01:38:53;;;;;;;24.27;13.43;;;;;;;-0.89;69.96;99715.94;5072885;28;20045;-54
2023/01/17 01:41:19;;;;;;;20.02;12.40;;;;;;;-0.82;69.53;99730.59;5074183;28;20036;-52
2023/01/17 01:43:45;;;;;;;21.08;12.57;;;;;;;-0.79;69.20;99725.22;5073546;28;20075;-53
2023/01/17 01:46:15;;;;;;;21.65;12.43;;;;;;;-0.78;69.69;99731.34;5074234;28;20326;-59
2023/01/17 01:48:50;;;;;;;19.60;12.10;;;;;;;-0.83;69.62;99717.50;5073331;28;20411;-56
2023/01/17 01:51:21;;;;;;;22.67;12.52;;;;;;;-0.73;69.04;99703.97;5074092;28;20036;-56
2023/01/17 01:53:50;;;;;;;22.23;11.85;;;;;;;-0.75;69.03;99700.53;5074136;28;20449;-58
2023/01/17 01:56:16;;;;;;;20.08;11.43;;;;;;;-0.76;69.41;99719.84;5073647;28;20036;-57
2023/01/17 01:58:48;;;;;;;22.40;12.93;;;;;;;-0.83;69.63;99710.47;5073474;28;20040;-53
2023/01/17 02:01:14;;;;;;;22.02;12.82;;;;;;;-0.88;69.57;99710.63;5073396;28;20098;-56
2023/01/17 02:03:40;;;;;;;24.80;13.38;;;;;;;-0.83;69.35;99717.50;5072693;28;20047;-60
2023/01/17 02:06:24;;;;;;;22.13;12.85;;;;;;;-0.87;69.59;99711.50;5073619;28;20020;-55
2023/01/17 02:08:50;;;;;;;21.88;12.20;;;;;;;-0.69;69.35;99717.03;5073481;28;20033;-59
2023/01/17 02:11:15;;;;;;;19.92;12.50;;;;;;;-0.78;69.44;99705.06;5073056;28;20029;-58
2023/01/17 02:13:42;;;;;;;22.55;12.32;;;;;;;-1.01;69.79;99676.03;5073256;28;20040;-55
2023/01/17 02:16:26;;;;;;;21.65;12.25;;;;;;;-0.74;69.83;99719.81;5073040;28;20064;-54
2023/01/17 02:19:15;;;;;;;22.10;11.40;;;;;;;-0.61;69.27;99722.84;5073572;28;20020;-57
2023/01/17 02:21:59;;;;;;;24.92;12.55;;;;;;;-0.65;68.84;99722.09;5072774;28;20036;-55
2023/01/17 02:24:33;;;;;;;21.35;12.40;;;;;;;-0.66;69.49;99720.38;5053512;28;20040;-59
2023/01/17 02:27:26;;;;;;;19.88;11.80;;;;;;;-0.61;69.21;99707.91;5071406;28;20041;-60
2023/01/17 02:30:30;;;;;;;21.75;12.35;;;;;;;-0.61;69.60;99702.66;5073542;28;20190;-53
2023/01/17 02:33:07;;;;;;;20.83;11.75;;;;;;;-0.60;69.00;99699.16;5057910;28;20075;-57
2023/01/17 02:35:54;;;;;;;20.85;12.15;;;;;;;-0.65;68.94;99700.22;5073421;28;20087;-58
2023/01/17 02:38:22;;;;;;;25.77;12.85;;;;;;;-0.64;69.07;99702.78;5073177;28;20072;-55
2023/01/17 02:41:00;;;;;;;19.95;11.73;;;;;;;-0.65;69.36;99687.91;5072518;28;20392;-57
2023/01/17 02:43:26;;;;;;;22.92;12.38;;;;;;;-0.66;69.01;99693.25;5073220;28;20041;-57
2023/01/17 02:45:51;;;;;;;22.25;12.23;;;;;;;-0.63;69.38;99699.22;5072837;28;20024;-55
2023/01/17 02:48:21;;;;;;;19.00;11.73;;;;;;;-0.63;68.81;99680.81;5072537;28;20050;-57
2023/01/17 02:50:52;;;;;;;21.27;12.68;;;;;;;-0.60;69.53;99696.50;5072829;28;20051;-55
2023/01/17 02:53:30;;;;;;;22.50;12.20;;;;;;;-0.61;68.62;99688.66;5071684;28;20413;-58
2023/01/17 02:56:06;;;;;;;22.02;12.15;;;;;;;-0.60;69.24;99687.75;5072094;28;20048;-60
2023/01/17 02:58:55;;;;;;;21.58;13.35;;;;;;;-0.63;68.98;99687.88;5072356;28;20029;-56
2023/01/17 03:01:38;;;;;;;21.33;12.48;;;;;;;-0.46;68.51;99690.75;5052788;28;20055;-55
2023/01/17 03:04:41;;;;;;;18.60;11.85;;;;;;;-0.54;68.79;99676.16;5072696;28;20024;-59
2023/01/17 03:07:15;;;;;;;21.00;11.85;;;;;;;-0.55;67.99;99679.69;5057995;28;20104;-53
2023/01/17 03:09:45;;;;;;;20.67;10.47;;;;;;;-0.54;68.53;99678.78;5072878;28;20039;-53
2023/01/17 03:12:12;;;;;;;21.48;11.75;;;;;;;-0.54;68.16;99676.16;5072570;28;20025;-53
2023/01/17 03:14:37;;;;;;;23.58;12.23;;;;;;;-0.65;68.48;99668.66;5071818;28;20032;-57
2023/01/17 03:17:04;;;;;;;20.13;11.25;;;;;;;-0.55;68.63;99698.94;5072228;28;20032;-56
2023/01/17 03:19:30;;;;;;;22.65;13.20;;;;;;;-0.56;68.48;99678.81;5072826;28;20482;-56
2023/01/17 03:21:56;;;;;;;20.40;11.75;;;;;;;-0.52;68.71;99684.84;5072418;28;20035;-56
2023/01/17 03:24:22;;;;;;;19.00;10.60;;;;;;;-0.44;68.06;99681.03;5071726;28;20040;-54
2023/01/17 03:26:47;;;;;;;21.73;13.10;;;;;;;-0.46;68.21;99680.22;5071685;28;20051;-51
2023/01/17 03:29:14;;;;;;;21.40;12.00;;;;;;;-0.47;68.40;99707.44;5072476;28;20445;-52
2023/01/17 03:31:39;;;;;;;22.65;12.48;;;;;;;-0.36;67.72;99677.22;5071998;28;20107;-53
2023/01/17 03:34:05;;;;;;;20.10;12.13;;;;;;;-0.64;68.60;99644.09;5071716;28;20104;-52
2023/01/17 03:36:30;;;;;;;24.63;12.88;;;;;;;-0.51;68.79;99669.00;5070709;28;20045;-60
2023/01/17 03:38:57;;;;;;;21.75;12.45;;;;;;;-0.45;68.35;99674.03;5072709;28;20049;-57
2023/01/17 03:41:23;;;;;;;19.73;11.65;;;;;;;-0.42;68.10;99674.84;5072651;28;20120;-56
2023/01/17 03:43:48;;;;;;;22.25;12.52;;;;;;;-0.71;68.08;99630.31;5071835;28;20434;-56
2023/01/17 03:46:22;;;;;;;21.80;12.15;;;;;;;-0.49;68.57;99689.97;5071673;28;20035;-56
2023/01/17 03:48:49;;;;;;;21.52;12.45;;;;;;;-0.51;68.49;99661.09;5071998;28;20972;-58
2023/01/17 03:51:15;;;;;;;20.23;11.77;;;;;;;-0.56;69.17;99656.94;5072412;28;20056;-54
2023/01/17 03:53:41;;;;;;;20.73;11.88;;;;;;;-0.58;68.89;99651.72;5071566;28;20056;-56
2023/01/17 03:56:06;;;;;;;18.25;11.55;;;;;;;-0.56;68.92;99655.16;5074126;28;20111;-57
2023/01/17 03:58:32;;;;;;;22.00;12.75;;;;;;;-0.46;68.40;99669.69;5075569;28;20028;-57
2023/01/17 04:00:57;;;;;;;18.45;10.75;;;;;;;-0.44;68.22;99662.59;5074945;28;20046;-54
2023/01/17 04:03:23;;;;;;;21.58;12.60;;;;;;;-0.51;68.35;99657.63;5075585;28;20032;-57
2023/01/17 04:05:48;;;;;;;24.40;13.13;;;;;;;-0.44;68.98;99678.38;5075495;28;20031;-55
2023/01/17 04:08:13;;;;;;;26.38;11.98;;;;;;;-0.45;68.87;99675.81;5076095;28;20483;-58
2023/01/17 04:10:39;;;;;;;25.02;11.77;;;;;;;-0.34;68.05;99678.03;5075691;28;20125;-58
2023/01/17 04:13:04;;;;;;;20.70;12.20;;;;;;;-0.38;68.63;99671.16;5075419;28;20490;-54
2023/01/17 04:15:30;;;;;;;19.30;11.60;;;;;;;-0.26;68.26;99677.75;5076068;28;20083;-60
2023/01/17 04:17:55;;;;;;;24.35;12.13;;;;;;;-0.41;68.18;99680.03;5074671;28;20036;-58
2023/01/17 04:20:36;;;;;;;19.42;12.35;;;;;;;-0.41;69.36;99676.56;5076063;28;20059;-55
2023/01/17 04:23:02;;;;;;;20.80;12.40;;;;;;;-0.41;69.26;99687.06;5075484;28;20527;-54
2023/01/17 04:25:29;;;;;;;19.45;11.65;;;;;;;-0.46;69.41;99690.75;5075391;28;20510;-54
2023/01/17 04:27:55;;;;;;;21.13;12.48;;;;;;;-0.37;68.88;99693.94;5074822;28;20041;-58
2023/01/17 04:30:21;;;;;;;21.63;12.20;;;;;;;-0.61;69.31;99660.59;5075344;28;20033;-58
2023/01/17 04:32:47;;;;;;;23.55;11.93;;;;;;;-0.41;68.79;99697.59;5075130;28;20032;-56
2023/01/17 04:35:12;;;;;;;21.27;12.05;;;;;;;-0.46;69.13;99713.53;5074464;28;20044;-56
2023/01/17 04:37:38;;;;;;;23.25;11.95;;;;;;;-0.53;69.51;99689.22;5075410;28;20433;-58
2023/01/17 04:40:04;;;;;;;19.60;11.82;;;;;;;-0.49;69.21;99695.25;5075213;28;20342;-57
2023/01/17 04:42:30;;;;;;;19.38;11.23;;;;;;;-0.37;69.11;99704.44;5074799;28;20028;-57
2023/01/17 04:44:55;;;;;;;21.63;11.98;;;;;;;-0.45;69.38;99697.72;5074567;28;20028;-55
2023/01/17 04:47:21;;;;;;;21.80;12.50;;;;;;;-0.36;69.08;99695.66;5075573;28;20855;-55
2023/01/17 04:49:46;;;;;;;23.50;12.95;;;;;;;-0.36;69.20;99700.91;5074802;28;20028;-59
2023/01/17 04:52:13;;;;;;;23.48;11.32;;;;;;;-0.29;68.67;99702.38;5074912;28;20170;-55
2023/01/17 04:54:39;;;;;;;21.48;12.20;;;;;;;-0.37;68.61;99691.31;5074878;28;20036;-59
2023/01/17 04:57:05;;;;;;;23.58;12.80;;;;;;;-0.45;69.01;99683.69;5074856;28;20033;-59
2023/01/17 04:59:30;;;;;;;21.52;12.20;;;;;;;-0.37;68.86;99692.13;5074991;28;20033;-60
2023/01/17 05:01:56;;;;;;;22.13;12.35;;;;;;;-0.33;69.13;99692.91;5074256;28;20044;-58
2023/01/17 05:04:21;;;;;;;20.10;10.15;;;;;;;-0.27;68.32;99697.91;5073775;28;20037;-59
2023/01/17 05:06:47;;;;;;;26.13;12.23;;;;;;;-0.33;68.80;99687.63;5073314;28;20070;-59
2023/01/17 05:09:12;;;;;;;21.85;12.57;;;;;;;-0.29;69.39;99697.13;5074508;28;20051;-58
2023/01/17 05:11:37;;;;;;;25.27;12.20;;;;;;;-0.27;69.46;99700.53;5074547;28;20459;-57
2023/01/17 05:14:03;;;;;;;25.13;11.80;;;;;;;-0.11;69.00;99697.34;5074430;28;20140;-61
2023/01/17 05:16:28;;;;;;;21.30;12.60;;;;;;;-0.19;69.09;99697.63;5074955;28;20491;-56
2023/01/17 05:18:54;;;;;;;21.92;12.70;;;;;;;-0.24;69.00;99689.06;5074355;28;20040;-57
2023/01/17 05:21:20;;;;;;;22.00;11.73;;;;;;;-0.26;69.13;99680.38;5073847;28;20381;-56
2023/01/17 05:23:46;;;;;;;24.65;12.55;;;;;;;-0.29;69.23;99686.59;5074048;28;20117;-56
2023/01/17 05:26:11;;;;;;;22.42;12.65;;;;;;;-0.21;68.84;99691.56;5074185;28;20408;-58
2023/01/17 05:28:37;;;;;;;22.70;12.68;;;;;;;-0.26;69.20;99696.16;5074474;28;20024;-56
2023/01/17 05:31:02;;;;;;;21.58;12.15;;;;;;;-0.22;69.46;99696.00;5073845;28;20465;-56
2023/01/17 05:33:27;;;;;;;25.15;12.63;;;;;;;-0.17;69.21;99690.53;5073750;28;20480;-57
2023/01/17 05:35:53;;;;;;;19.02;11.45;;;;;;;-0.08;68.39;99689.31;5073899;28;20385;-54
2023/01/17 05:38:18;;;;;;;22.48;12.85;;;;;;;-0.11;68.82;99692.06;5074362;28;20457;-58
2023/01/17 05:40:44;;;;;;;22.42;12.35;;;;;;;-0.34;68.89;99662.25;5073249;28;20036;-58
2023/01/17 05:43:09;;;;;;;18.55;10.70;;;;;;;-0.10;68.55;99689.41;5073657;28;20478;-55
2023/01/17 05:45:35;;;;;;;19.95;11.95;;;;;;;-0.18;69.08;99700.22;5074224;28;20028;-61
2023/01/17 05:48:02;;;;;;;21.17;11.90;;;;;;;-0.17;69.03;99712.47;5073985;28;20029;-56
2023/01/17 05:50:32;;;;;;;22.13;11.82;;;;;;;-0.15;69.78;99710.63;5073286;28;20582;-58
2023/01/17 05:53:01;;;;;;;20.33;11.95;;;;;;;-0.26;68.97;99681.22;5073606;28;20101;-59
2023/01/17 05:55:28;;;;;;;23.42;12.43;;;;;;;-0.14;69.20;99706.19;5073272;28;20353;-56
2023/01/17 05:57:54;;;;;;;22.90;12.52;;;;;;;-0.11;69.12;99716.63;5073788;28;20028;-57
2023/01/17 06:00:20;;;;;;;20.50;11.75;;;;;;;-0.08;69.10;99694.59;5073724;28;20036;-58
2023/01/17 06:02:47;;;;;;;19.50;12.18;;;;;;;-0.16;69.48;99693.13;5073689;28;20033;-55
2023/01/17 06:05:13;;;;;;;21.70;11.05;;;;;;;-0.03;68.98;99713.69;5073252;28;20036;-56
2023/01/17 06:07:38;;;;;;;22.48;12.80;;;;;;;-0.10;69.58;99704.31;5072913;28;20444;-59
2023/01/17 06:10:05;;;;;;;23.75;12.38;;;;;;;-0.03;69.66;99708.41;5073780;28;20029;-58
2023/01/17 06:12:31;;;;;;;19.73;11.70;;;;;;;-0.03;69.43;99697.88;5072928;28;20029;-55
2023/01/17 06:14:56;;;;;;;21.65;12.20;;;;;;;0.01;69.32;99704.78;5073134;28;20090;-62
2023/01/17 06:17:22;;;;;;;21.60;12.32;;;;;;;-0.07;69.35;99689.28;5073531;28;20029;-54
2023/01/17 06:19:47;;;;;;;25.23;13.18;;;;;;;-0.01;69.61;99696.94;5072010;28;20350;-57
2023/01/17 06:22:12;;;;;;;20.98;11.55;;;;;;;0.06;69.32;99700.19;5072165;28;20036;-55
2023/01/17 06:24:38;;;;;;;26.40;13.18;;;;;;;0.01;69.07;99696.88;5072281;28;20086;-57
2023/01/17 06:27:03;;;;;;;21.13;12.35;;;;;;;0.03;69.92;99707.34;5072802;28;20032;-53
2023/01/17 06:29:29;;;;;;;20.98;10.80;;;;;;;0.01;69.36;99702.16;5073152;28;20592;-56
2023/01/17 06:31:54;;;;;;;21.48;12.07;;;;;;;0.10;69.42;99714.94;5070223;28;20575;-56
2023/01/17 06:34:20;;;;;;;23.95;12.60;;;;;;;0.14;69.45;99700.72;5073312;28;20045;-59
2023/01/17 06:36:45;;;;;;;21.63;12.60;;;;;;;0.10;69.52;99699.13;5072583;28;20055;-58
2023/01/17 06:39:11;;;;;;;20.48;11.52;;;;;;;0.21;68.66;99696.09;5072224;28;20036;-59
2023/01/17 06:41:37;;;;;;;21.50;11.80;;;;;;;0.14;69.42;99716.53;5073254;28;20050;-52
2023/01/17 06:44:02;;;;;;;20.98;12.48;;;;;;;0.11;69.71;99702.63;5072931;28;20105;-51
2023/01/17 06:46:27;;;;;;;22.13;12.32;;;;;;;-0.09;69.70;99670.06;5072181;28;20040;-54
2023/01/17 06:48:53;;;;;;;20.60;12.50;;;;;;;0.21;69.43;99705.75;5071753;28;20486;-56
2023/01/17 06:51:19;;;;;;;25.42;13.30;;;;;;;0.22;69.24;99700.44;5073010;28;20471;-57
2023/01/17 06:53:46;;;;;;;24.40;13.75;;;;;;;0.17;69.43;99677.81;5072706;28;20036;-54
2023/01/17 06:56:12;;;;;;;24.48;13.98;;;;;;;0.20;69.59;99694.38;5069890;28;20051;-54
2023/01/17 06:58:37;;;;;;;24.90;13.85;;;;;;;0.07;68.94;99667.69;5069477;28;20108;-53
2023/01/17 07:01:08;;;;;;;22.30;13.10;;;;;;;0.27;68.98;99710.78;5072474;28;20431;-56
2023/01/17 07:03:34;;;;;;;22.90;12.85;;;;;;;0.20;69.62;99698.75;5071740;28;20035;-53
2023/01/17 07:06:00;;;;;;;22.58;12.70;;;;;;;0.08;69.92;99686.94;5072239;28;20370;-51
2023/01/17 07:08:26;;;;;;;24.02;13.40;;;;;;;0.21;69.88;99718.91;5071775;28;20028;-55
2023/01/17 07:10:57;;;;;;;22.77;13.02;;;;;;;0.33;69.66;99713.16;5072698;28;20028;-55
2023/01/17 07:13:22;;;;;;;22.50;13.10;;;;;;;0.19;69.12;99684.75;5052371;28;20463;-56
2023/01/17 07:15:48;;;;;;;23.38;13.57;;;;;;;0.39;69.52;99710.28;5051818;28;20052;-53
2023/01/17 07:18:15;;;;;;;24.10;13.35;;;;;;;0.34;69.36;99711.38;5052273;28;20113;-53
2023/01/17 07:20:42;;;;;;;25.77;12.93;;;;;;;0.35;69.11;99711.31;5052495;28;20164;-63
2023/01/17 07:23:08;;;;;;;22.30;13.25;;;;;;;0.37;69.22;99712.13;5063262;28;20411;-56
2023/01/17 07:25:33;;;;;;;24.77;13.77;;;;;;;0.36;69.59;99720.94;5069748;28;20082;-55
2023/01/17 07:27:59;;;;;;;23.85;13.50;;;;;;;0.30;69.68;99691.34;5053373;28;20098;-62
2023/01/17 07:30:25;;;;;;;24.45;14.10;;;;;;;0.46;69.52;99710.03;5071400;28;20035;-58
2023/01/17 07:32:52;;;;;;;25.00;13.05;;;;;;;0.43;69.32;99708.38;5070090;28;20367;-60
2023/01/17 07:35:17;;;;;;;23.15;12.90;;;;;;;0.49;69.70;99707.28;5069400;28;20044;-58
2023/01/17 07:37:50;;;;;;;24.83;13.73;;;;;;;0.62;69.25;99718.19;5070039;28;20044;-61
2023/01/17 07:40:17;;;;;;;24.35;13.77;;;;;;;0.49;69.48;99702.88;5072164;28;20448;-60
2023/01/17 07:42:43;;;;;;;26.45;13.85;;;;;;;0.40;69.39;99690.91;5071167;28;20345;-59
2023/01/17 07:45:10;;;;;;;25.45;13.88;;;;;;;0.43;69.08;99669.72;5070854;28;20064;-61
2023/01/17 07:47:35;;;;;;;27.45;14.13;;;;;;;0.64;69.39;99719.81;5071230;28;20448;-62
2023/01/17 07:50:01;;;;;;;26.92;14.18;;;;;;;0.60;69.01;99699.78;5071975;28;20063;-58
2023/01/17 07:52:28;;;;;;;25.30;13.32;;;;;;;0.65;69.25;99712.78;5070776;28;20135;-60
2023/01/17 07:54:54;;;;;;;25.83;13.25;;;;;;;0.68;69.27;99702.94;5071733;28;20480;-60
2023/01/17 07:57:19;;;;;;;23.45;13.82;;;;;;;0.79;68.68;99720.13;5070920;28;20452;-56
2023/01/17 07:59:45;;;;;;;23.50;13.90;;;;;;;0.76;68.63;99717.59;5071943;28;20102;-57
2023/01/17 08:02:22;;;;;;;26.83;15.20;;;;;;;0.77;68.69;99709.63;5072137;28;20033;-68
2023/01/17 08:04:48;;;;;;;25.35;14.25;;;;;;;0.75;69.27;99721.16;5096589;28;20047;-56
2023/01/17 08:07:14;;;;;;;25.05;13.40;;;;;;;0.71;69.44;99739.72;5071875;28;20032;-56
2023/01/17 08:09:40;;;;;;;27.67;14.45;;;;;;;0.67;69.55;99724.94;5070370;28;20060;-58
2023/01/17 08:12:06;;;;;;;26.08;14.95;;;;;;;0.82;69.12;99730.53;5071317;28;20039;-58
2023/01/17 08:14:31;;;;;;;28.88;14.63;;;;;;;0.80;69.40;99721.81;5070418;28;20115;-58
2023/01/17 08:17:11;;;;;;;27.88;13.93;;;;;;;0.91;69.30;99727.50;5069319;28;20115;-59
2023/01/17 08:19:36;;;;;;;28.58;14.15;;;;;;;0.86;69.30;99729.47;5071797;28;20107;-57
2023/01/17 08:22:02;;;;;;;25.10;14.68;;;;;;;0.90;69.32;99725.78;5071444;28;20033;-56
2023/01/17 08:24:28;;;;;;;24.33;13.48;;;;;;;0.93;69.21;99728.28;5071232;28;20036;-59
2023/01/17 08:26:55;;;;;;;24.38;14.25;;;;;;;0.92;69.34;99729.19;5070391;28;20788;-57
2023/01/17 08:29:20;;;;;;;26.25;14.90;;;;;;;0.93;69.36;99722.16;5070885;28;20475;-57
2023/01/17 08:31:46;;;;;;;28.08;15.65;;;;;;;1.03;69.19;99725.28;5068981;28;20029;-55
2023/01/17 08:34:13;;;;;;;29.83;15.25;;;;;;;1.01;69.12;99730.59;5071323;28;20337;-60
2023/01/17 08:36:41;;;;;;;25.13;14.68;;;;;;;1.00;69.16;99716.56;5071852;28;20033;-59
2023/01/17 08:39:08;;;;;;;28.20;15.68;;;;;;;0.99;69.17;99714.84;5069735;28;20039;-59
2023/01/17 08:41:34;;;;;;;29.67;15.18;;;;;;;0.96;69.55;99693.88;5071654;28;20044;-61
2023/01/17 08:44:00;;;;;;;28.67;15.27;;;;;;;1.00;69.31;99727.13;5074457;28;20127;-62
2023/01/17 08:46:25;;;;;;;28.25;14.35;;;;;;;0.79;70.00;99672.66;5073728;28;20107;-60
2023/01/17 08:48:57;;;;;;;26.35;15.27;;;;;;;1.03;70.05;99727.91;5070983;28;20056;-62
2023/01/17 08:51:25;;;;;;;35.25;17.00;;;;;;;1.04;70.07;99704.09;5074248;28;20115;-59
2023/01/17 08:53:51;;;;;;;29.08;16.67;;;;;;;1.10;70.03;99702.97;5056741;28;20123;-60
2023/01/17 08:56:16;;;;;;;28.52;16.33;;;;;;;1.13;69.87;99719.53;5075089;28;20072;-58
2023/01/17 08:58:42;;;;;;;32.25;15.18;;;;;;;1.29;68.87;99725.00;5074681;28;20074;-56
2023/01/17 09:01:07;;;;;;;30.67;16.40;;;;;;;1.24;69.55;99712.91;5074904;28;20029;-58
2023/01/17 09:03:33;;;;;;;31.50;15.93;;;;;;;1.27;69.30;99697.84;5073612;28;20028;-56
2023/01/17 09:06:03;;;;;;;30.48;16.50;;;;;;;1.22;69.13;99715.66;5074913;28;20051;-55
2023/01/17 09:08:29;;;;;;;31.98;17.65;;;;;;;1.25;69.49;99712.88;5074804;28;20075;-58
2023/01/17 09:10:54;;;;;;;31.70;16.73;;;;;;;1.18;69.40;99678.91;5074315;28;20386;-57
2023/01/17 09:13:20;;;;;;;32.20;16.60;;;;;;;1.25;69.47;99667.16;5073857;28;20047;-55
2023/01/17 09:15:45;;;;;;;30.73;17.23;;;;;;;1.46;68.82;99698.78;5074408;28;20516;-59
2023/01/17 09:18:10;;;;;;;33.45;17.23;;;;;;;1.56;69.11;99697.44;5074492;28;20041;-54
2023/01/17 09:20:36;;;;;;;34.97;18.08;;;;;;;1.58;68.86;99691.16;5074126;28;20032;-64
2023/01/17 09:23:02;;;;;;;32.45;17.20;;;;;;;1.64;68.67;99705.00;5073942;28;20120;-62
2023/01/17 09:25:27;;;;;;;31.38;17.80;;;;;;;1.63;68.51;99704.16;5073672;28;20032;-57
2023/01/17 09:27:53;;;;;;;32.67;17.67;;;;;;;1.65;68.35;99693.50;5074128;28;20039;-57
2023/01/17 09:30:18;;;;;;;33.35;19.30;;;;;;;1.69;69.08;99697.75;5074002;28;20058;-56
2023/01/17 09:32:51;;;;;;;35.20;18.00;;;;;;;1.71;69.22;99693.25;5074038;28;20330;-68
2023/01/17 09:35:17;;;;;;;37.55;18.33;;;;;;;1.78;69.01;99699.97;5074350;28;20080;-55
2023/01/17 09:37:42;;;;;;;41.60;18.45;;;;;;;1.80;68.99;99699.88;5073498;28;20456;-59
2023/01/17 09:40:16;;;;;;;39.28;19.48;;;;;;;1.82;69.11;99683.03;5073763;28;20036;-59
2023/01/17 09:42:42;;;;;;;33.95;17.58;;;;;;;1.86;68.84;99697.81;5071937;28;20032;-60
2023/01/17 09:45:17;;;;;;;32.63;16.50;;;;;;;2.08;68.37;99703.88;5072982;28;20060;-55
2023/01/17 09:47:45;;;;;;;36.53;19.45;;;;;;;1.77;68.97;99679.78;5065562;28;20566;-59
2023/01/17 09:50:32;;;;;;;37.08;17.92;;;;;;;1.84;69.37;99689.09;5073114;28;20056;-58
2023/01/17 09:53:12;;;;;;;33.97;17.80;;;;;;;1.82;69.54;99698.03;5071131;28;20029;-55
2023/01/17 09:55:47;;;;;;;36.58;18.45;;;;;;;1.84;69.24;99675.06;5072500;28;20032;-54
2023/01/17 09:58:21;;;;;;;;;;;;;;;2.18;68.88;99696.38;5073466;28;20028;-58
2023/01/17 10:01:06;;;;;;;35.10;18.25;;;;;;;2.03;68.81;99688.25;5073479;28;19935;-58
2023/01/17 10:03:44;;;;;;;34.38;18.13;;;;;;;1.95;68.87;99688.59;5072217;28;20480;-59
2023/01/17 10:06:35;;;;;;;35.65;17.58;;;;;;;1.98;69.34;99695.53;5073202;28;20452;-58
2023/01/17 10:09:09;;;;;;;33.30;17.50;;;;;;;1.89;69.13;99690.66;5072968;28;20415;-60
2023/01/17 10:11:34;;;;;;;32.58;18.45;;;;;;;1.93;69.17;99686.94;5073230;28;20132;-59
2023/01/17 10:14:06;;;;;;;34.35;18.17;;;;;;;1.99;68.83;99697.25;5072138;28;20036;-59
2023/01/17 10:16:53;;;;;;;33.50;18.83;;;;;;;2.01;68.69;99701.50;5073058;28;20355;-58
2023/01/17 10:19:43;;;;;;;35.03;19.80;;;;;;;2.02;69.22;99683.91;5072322;28;20032;-55
2023/01/17 10:22:33;;;;;;;33.38;17.83;;;;;;;2.04;69.34;99689.97;5072702;28;20067;-58
2023/01/17 10:25:04;;;;;;;32.03;17.92;;;;;;;2.00;69.08;99691.03;5073093;28;20068;-56
2023/01/17 10:27:40;;;;;;;31.88;18.85;;;;;;;2.04;69.23;99700.53;5071898;28;20589;-58
2023/01/17 10:30:21;;;;;;;38.65;18.90;;;;;;;2.03;69.33;99685.59;5071932;28;20519;-60
2023/01/17 10:32:48;;;;;;;31.73;18.23;;;;;;;1.98;69.78;99693.72;5073142;28;20043;-67
2023/01/17 10:35:27;;;;;;;33.83;18.90;;;;;;;2.05;69.73;99689.03;5073266;28;20044;-61
2023/01/17 10:37:57;;;;;;;31.17;18.17;;;;;;;2.07;69.59;99695.09;5072428;28;20032;-60
2023/01/17 10:40:28;;;;;;;33.55;18.75;;;;;;;2.08;69.46;99695.97;5072583;28;20056;-60
2023/01/17 10:43:10;;;;;;;32.78;17.50;;;;;;;2.18;69.65;99699.84;5071213;28;20464;-63
2023/01/17 10:45:43;;;;;;;32.05;18.45;;;;;;;2.15;68.89;99685.00;5051175;28;20073;-58
2023/01/17 10:48:18;;;;;;;37.38;19.23;;;;;;;2.05;69.87;99683.75;5053118;28;20166;-58
2023/01/17 10:51:10;;;;;;;37.53;19.50;;;;;;;2.24;69.09;99698.72;5072745;28;20032;-60
2023/01/17 10:53:56;;;;;;;37.90;19.80;;;;;;;2.14;69.44;99690.38;5066859;28;20044;-57
2023/01/17 10:56:27;;;;;;;36.72;18.92;;;;;;;2.06;70.27;99688.09;5071825;28;20433;-59
2023/01/17 10:59:10;;;;;;;37.47;19.25;;;;;;;2.14;70.00;99685.94;5056919;28;20059;-57
2023/01/17 11:01:36;;;;;;;38.83;20.10;;;;;;;2.22;69.24;99680.28;5072626;28;20056;-56
2023/01/17 11:04:02;;;;;;;35.88;20.10;;;;;;;2.21;68.98;99686.50;5067943;28;20032;-56
2023/01/17 11:06:31;;;;;;;39.78;19.33;;;;;;;2.17;69.67;99684.06;5071421;28;20032;-58
2023/01/17 11:09:00;;;;;;;38.22;18.77;;;;;;;2.16;69.91;99696.44;5071373;28;20103;-58
2023/01/17 11:11:34;;;;;;;38.47;20.35;;;;;;;2.23;69.59;99691.72;5072525;28;20032;-58
2023/01/17 11:14:17;;;;;;;37.95;19.60;;;;;;;2.21;69.99;99688.31;5070164;28;20086;-59
2023/01/17 11:16:42;;;;;;;38.60;20.63;;;;;;;2.26;69.43;99697.69;5069660;28;20102;-58
2023/01/17 11:19:27;;;;;;;39.85;20.30;;;;;;;2.30;69.64;99701.06;5072077;28;20405;-57
2023/01/17 11:21:57;;;;;;;36.63;20.03;;;;;;;2.26;68.97;99687.13;5071027;28;20387;-59
2023/01/17 11:24:40;;;;;;;39.55;20.08;;;;;;;2.23;69.81;99684.63;5072181;28;20350;-60
2023/01/17 11:27:21;;;;;;;43.60;20.02;;;;;;;2.06;69.56;99664.31;5071509;28;20085;-57
2023/01/17 11:29:46;;;;;;;42.75;21.30;;;;;;;2.27;69.65;99688.84;5071167;28;20369;-55
2023/01/17 11:32:21;;;;;;;42.78;20.95;;;;;;;2.31;69.59;99681.63;5071907;28;20032;-58
2023/01/17 11:35:06;;;;;;;42.03;20.70;;;;;;;2.41;69.17;99674.13;5071659;28;20337;-53
2023/01/17 11:37:33;;;;;;;;;;;;;;;2.63;68.37;99684.47;5030314;28;20338;-61
2023/01/17 11:40:08;;;;;;;41.15;19.25;;;;;;;2.49;68.40;99679.03;5071143;28;19978;-63
2023/01/17 11:42:36;;;;;;;41.30;20.83;;;;;;;2.36;69.05;99676.97;5071135;28;20051;-59
2023/01/17 11:45:20;;;;;;;38.85;20.30;;;;;;;2.49;69.61;99694.88;5066212;28;20102;-58
2023/01/17 11:47:45;;;;;;;43.35;20.52;;;;;;;2.37;69.20;99670.75;5069214;28;20040;-54
2023/01/17 11:50:25;;;;;;;37.25;20.02;;;;;;;2.46;69.28;99665.97;5068935;28;20085;-61
2023/01/17 11:52:50;;;;;;;44.47;21.83;;;;;;;2.58;68.17;99675.91;5071178;28;20028;-63
2023/01/17 11:55:17;;;;;;;42.47;21.08;;;;;;;2.45;68.99;99673.03;5070868;28;20653;-61
2023/01/17 11:57:49;;;;;;;38.85;21.20;;;;;;;2.24;69.84;99651.16;5071230;28;20029;-63
2023/01/17 12:00:31;;;;;;;43.45;20.23;;;;;;;2.35;69.65;99651.47;5069662;28;20044;-64
2023/01/17 12:03:26;;;;;;;42.53;20.58;;;;;;;2.56;69.37;99689.22;5070852;28;20480;-62
2023/01/17 12:06:03;;;;;;;40.13;19.38;;;;;;;2.60;69.41;99689.91;5071479;28;20356;-63
2023/01/17 12:08:32;;;;;;;42.17;21.25;;;;;;;2.60;69.15;99681.97;5071559;28;20041;-61
2023/01/17 12:11:10;;;;;;;40.28;19.95;;;;;;;2.59;68.76;99685.56;5070669;28;20028;-63
2023/01/17 12:14:01;;;;;;;37.90;19.73;;;;;;;2.69;68.81;99688.59;5071287;28;20029;-61
2023/01/17 12:17:00;;;;;;;40.45;20.85;;;;;;;2.65;68.74;99703.78;5072927;28;20036;-62
2023/01/17 12:19:52;;;;;;;43.13;19.75;;;;;;;2.64;68.72;99699.38;5075456;28;20093;-64
2023/01/17 12:22:33;;;;;;;36.88;19.48;;;;;;;2.58;69.02;99681.19;5075810;28;20036;-58
2023/01/17 12:25:13;;;;;;;32.67;17.85;;;;;;;2.65;68.56;99690.56;5075460;28;20034;-58
2023/01/17 12:27:54;;;;;;;36.83;20.02;;;;;;;2.64;68.38;99687.97;5075774;28;20189;-61
2023/01/17 12:30:56;;;;;;;38.03;18.73;;;;;;;2.67;69.27;99677.25;5070536;28;20060;-66
2023/01/17 12:33:51;;;;;;;38.42;18.63;;;;;;;2.67;68.26;99696.63;5075380;28;20033;-63
2023/01/17 12:36:35;;;;;;;41.72;20.05;;;;;;;2.62;68.26;99685.41;5075789;28;20054;-60
2023/01/17 12:39:10;;;;;;;41.95;19.27;;;;;;;2.69;68.47;99693.88;5075574;28;20052;-61
2023/01/17 12:41:45;;;;;;;;;;;;;;;2.85;67.64;99689.53;5075279;28;20040;-62
2023/01/17 12:44:14;;;;;;;36.75;17.60;;;;;;;2.70;67.99;99672.66;5073340;28;19926;-64
2023/01/17 12:46:48;;;;;;;36.35;18.40;;;;;;;2.61;68.50;99694.25;5073944;28;20235;-55
2023/01/17 12:49:22;;;;;;;34.13;17.85;;;;;;;2.71;68.68;99682.31;5074300;28;20448;-59
2023/01/17 12:51:54;;;;;;;36.80;18.65;;;;;;;2.64;68.02;99678.25;5072691;28;20056;-62
2023/01/17 12:54:32;;;;;;;42.33;18.95;;;;;;;2.63;68.93;99673.88;5074121;28;20032;-65
2023/01/17 12:57:03;;;;;;;36.17;18.95;;;;;;;2.64;69.13;99696.75;5074608;28;20433;-62